Time;durP1;ratioP1;P1;durP2;ratioP2;P2;SDS_P1;SDS_P2;PMS_P1;PMS_P2;Temp;Humidity;BMP_temperature;BMP_pressure;BME280_temperature;BME280_humidity;BME280_pressure;Samples;Min_cycle;Max_cycle;Signal;HPM_P1;HPM_P2
2022/09/18 00:01:49;;;;;;;4.30;3.00;;;10.60;99.90;;;;;;4997987;28;20181;-89
2022/09/18 00:04:15;;;;;;;2.75;2.53;;;11.30;99.90;;;;;;5016698;28;20224;-89
2022/09/18 00:06:42;;;;;;;4.07;2.83;;;10.60;99.90;;;;;;5014675;28;20181;-89
2022/09/18 00:09:13;;;;;;;3.83;3.43;;;10.50;99.90;;;;;;5045959;28;20232;-89
2022/09/18 00:11:41;;;;;;;4.77;3.37;;;11.60;99.90;;;;;;5035519;28;20175;-89
2022/09/18 00:14:09;;;;;;;4.22;2.70;;;10.60;99.90;;;;;;5037956;28;20172;-88
2022/09/18 00:16:36;;;;;;;2.10;1.70;;;10.60;99.90;;;;;;5053534;28;20541;-89
2022/09/18 00:19:02;;;;;;;2.77;2.57;;;10.80;99.90;;;;;;5055490;28;20183;-89
2022/09/18 00:21:28;;;;;;;5.00;3.07;;;10.60;99.90;;;;;;5033821;28;20244;-89
2022/09/18 00:23:56;;;;;;;4.47;3.57;;;10.60;99.90;;;;;;5034635;28;20268;-89
2022/09/18 00:26:24;;;;;;;3.77;3.37;;;12.10;99.90;;;;;;5053395;28;20207;-89
2022/09/18 00:28:51;;;;;;;4.07;3.40;;;10.70;99.90;;;;;;5066504;28;20234;-88
2022/09/18 00:31:19;;;;;;;3.92;2.78;;;10.60;99.90;;;;;;5079330;28;20188;-88
2022/09/18 00:33:45;;;;;;;3.47;2.77;;;11.10;99.90;;;;;;5079213;28;20190;-89
2022/09/18 00:36:13;;;;;;;4.13;2.53;;;10.70;99.90;;;;;;5079758;28;20161;-88
2022/09/18 00:38:39;;;;;;;4.27;2.17;;;11.10;99.90;;;;;;5078570;28;20184;-89
2022/09/18 00:41:08;;;;;;;3.07;2.17;;;11.50;99.90;;;;;;5051440;28;20152;-88
2022/09/18 00:43:35;;;;;;;2.53;2.00;;;10.70;99.90;;;;;;5070671;28;20188;-89
2022/09/18 00:46:14;;;;;;;5.50;3.07;;;10.70;99.90;;;;;;5068450;28;20179;-88
2022/09/18 00:49:15;;;;;;;2.88;2.22;;;10.70;99.90;;;;;;5061334;28;20215;-89
2022/09/18 00:51:43;;;;;;;3.20;2.30;;;10.90;99.90;;;;;;5052928;28;20258;-89
2022/09/18 00:54:31;;;;;;;3.30;2.78;;;10.40;99.90;;;;;;5064739;28;20226;-89
2022/09/18 00:57:01;;;;;;;2.40;2.20;;;10.50;99.90;;;;;;5066380;28;20240;-89
2022/09/18 00:59:29;;;;;;;3.90;3.07;;;10.90;99.90;;;;;;5062650;28;20228;-89
2022/09/18 01:01:56;;;;;;;2.57;2.37;;;10.70;99.90;;;;;;5044950;28;20173;-89
2022/09/18 01:04:23;;;;;;;3.97;2.83;;;10.80;99.90;;;;;;5027380;28;20614;-89
2022/09/18 01:07:17;;;;;;;3.40;2.43;;;10.80;99.90;;;;;;5048912;28;20194;-89
2022/09/18 01:09:53;;;;;;;4.00;2.83;;;10.80;99.90;;;;;;5053255;28;20223;-89
2022/09/18 01:12:41;;;;;;;2.53;1.87;;;10.80;99.90;;;;;;5038440;28;20233;-89
2022/09/18 01:15:25;;;;;;;3.17;2.30;;;10.80;99.90;;;;;;5034095;28;20184;-89
2022/09/18 01:18:26;;;;;;;3.30;2.90;;;10.80;99.90;;;;;;5034969;28;20211;-89
2022/09/18 01:21:02;;;;;;;3.87;2.47;;;10.80;99.90;;;;;;4996542;28;20194;-88
2022/09/18 01:23:55;;;;;;;3.72;2.30;;;10.80;99.90;;;;;;5035414;28;20188;-89
2022/09/18 01:26:30;;;;;;;5.20;3.47;;;10.80;99.90;;;;;;5052640;28;20261;-90
2022/09/18 01:29:10;;;;;;;3.20;2.90;;;10.90;99.90;;;;;;5053579;28;20215;-89
2022/09/18 01:31:51;;;;;;;5.87;3.63;;;10.90;99.90;;;;;;5054888;28;20176;-89
2022/09/18 01:34:52;;;;;;;3.40;2.87;;;10.90;99.90;;;;;;5054646;28;20168;-89
2022/09/18 01:37:44;;;;;;;2.10;1.90;;;10.90;99.90;;;;;;4966249;28;20266;-89
2022/09/18 01:40:22;;;;;;;3.10;2.30;;;10.90;99.90;;;;;;5029648;28;20192;-89
2022/09/18 01:42:50;;;;;;;7.28;3.40;;;10.90;99.90;;;;;;5033856;28;20176;-89
2022/09/18 01:45:21;;;;;;;5.17;3.00;;;11.30;99.90;;;;;;5049075;28;20188;-89
2022/09/18 01:47:52;;;;;;;4.03;2.97;;;10.90;99.90;;;;;;5039983;28;20204;-89
2022/09/18 01:50:20;;;;;;;4.93;3.47;;;10.90;99.90;;;;;;5053043;28;20206;-90
2022/09/18 01:53:16;;;;;;;3.23;2.93;;;10.90;99.90;;;;;;5054278;28;20718;-89
2022/09/18 01:55:47;;;;;;;4.00;2.83;;;10.80;99.90;;;;;;5023963;28;20199;-90
2022/09/18 01:58:16;;;;;;;2.37;1.80;;;11.10;99.90;;;;;;5047875;28;20192;-89
2022/09/18 02:00:49;;;;;;;3.57;3.27;;;10.80;99.90;;;;;;5036640;28;20180;-89
2022/09/18 02:03:26;;;;;;;7.57;3.47;;;10.80;99.90;;;;;;5051741;28;20184;-90
2022/09/18 02:05:55;;;;;;;4.33;3.07;;;10.80;99.90;;;;;;5051835;28;20184;-89
2022/09/18 02:08:37;;;;;;;3.28;2.95;;;11.20;99.90;;;;;;5042440;28;20673;-90
2022/09/18 02:11:10;;;;;;;4.10;3.20;;;10.80;99.90;;;;;;5031870;28;20229;-89
2022/09/18 02:14:00;;;;;;;4.70;3.00;;;12.20;99.90;;;;;;5033607;28;20172;-89
2022/09/18 02:16:31;;;;;;;2.83;2.37;;;10.80;99.90;;;;;;5033572;28;20637;-89
2022/09/18 02:19:04;;;;;;;3.00;2.67;;;10.70;99.90;;;;;;5015651;28;20325;-89
2022/09/18 02:21:31;;;;;;;3.50;2.50;;;10.80;99.90;;;;;;5013223;28;20201;-89
2022/09/18 02:24:05;;;;;;;2.57;2.37;;;10.70;99.90;;;;;;5013558;28;20191;-89
2022/09/18 02:26:34;;;;;;;2.67;2.23;;;10.70;99.90;;;;;;5012467;28;20590;-89
2022/09/18 02:29:02;;;;;;;2.97;2.67;;;10.70;99.90;;;;;;4995655;28;20216;-90
2022/09/18 02:31:28;;;;;;;2.92;2.60;;;10.70;99.90;;;;;;4996250;28;20170;-90
2022/09/18 02:33:53;;;;;;;2.13;1.83;;;10.80;99.90;;;;;;4995957;28;20184;-90
2022/09/18 02:36:22;;;;;;;3.17;2.93;;;10.80;99.90;;;;;;5012228;28;20581;-89
2022/09/18 02:39:05;;;;;;;2.43;2.23;;;10.70;99.90;;;;;;5012585;28;20185;-89
2022/09/18 02:42:14;;;;;;;3.57;2.73;;;10.70;99.90;;;;;;5012679;28;20184;-89
2022/09/18 02:44:45;;;;;;;2.73;2.20;;;10.70;99.90;;;;;;5012710;28;20563;-89
2022/09/18 02:47:33;;;;;;;3.43;2.33;;;10.70;99.90;;;;;;5012107;28;20185;-90
2022/09/18 02:50:28;;;;;;;4.40;2.53;;;10.70;99.90;;;;;;5013267;28;20211;-89
2022/09/18 02:52:58;;;;;;;2.28;2.05;;;10.60;99.90;;;;;;5024541;28;20176;-90
2022/09/18 02:55:29;;;;;;;1.93;1.83;;;10.60;99.90;;;;;;5015446;28;20212;-90
2022/09/18 02:58:01;;;;;;;4.53;3.10;;;10.90;99.90;;;;;;5039313;28;20188;-87
2022/09/18 03:00:28;;;;;;;5.97;3.60;;;10.60;99.90;;;;;;5049468;28;20208;-88
2022/09/18 03:02:58;;;;;;;2.20;1.90;;;10.60;99.90;;;;;;5041249;28;20209;-90
2022/09/18 03:05:24;;;;;;;2.37;2.17;;;10.60;99.90;;;;;;5015271;28;20177;-89
2022/09/18 03:07:50;;;;;;;4.20;2.70;;;11.10;99.90;;;;;;5017742;28;20235;-89
2022/09/18 03:10:16;;;;;;;2.60;2.40;;;10.50;99.90;;;;;;5047361;28;20661;-89
2022/09/18 03:12:42;;;;;;;2.97;2.55;;;10.50;99.90;;;;;;5033016;28;20278;-90
2022/09/18 03:15:08;;;;;;;2.13;1.93;;;10.50;99.90;;;;;;5033145;28;20697;-90
2022/09/18 03:17:34;;;;;;;2.23;2.03;;;10.50;99.90;;;;;;5037053;28;20193;-92
2022/09/18 03:19:59;;;;;;;1.70;1.60;;;10.50;99.90;;;;;;5036065;28;20193;-89
2022/09/18 03:22:25;;;;;;;3.03;2.47;;;10.50;99.90;;;;;;5035229;28;20199;-89
2022/09/18 03:24:50;;;;;;;1.70;1.60;;;10.50;99.90;;;;;;5036946;28;20192;-89
2022/09/18 03:27:16;;;;;;;2.37;2.17;;;10.50;99.90;;;;;;5036400;28;20227;-90
2022/09/18 03:29:44;;;;;;;4.50;3.27;;;10.70;99.90;;;;;;5035603;28;20220;-90
2022/09/18 03:32:10;;;;;;;2.37;2.17;;;10.40;99.90;;;;;;5052449;28;20184;-89
2022/09/18 03:34:36;;;;;;;2.13;1.93;;;10.80;99.90;;;;;;5053321;28;20207;-89
2022/09/18 03:37:02;;;;;;;2.00;1.90;;;11.70;99.90;;;;;;5055141;28;20659;-89
2022/09/18 03:39:28;;;;;;;2.23;2.03;;;10.40;99.90;;;;;;5054671;28;20180;-88
2022/09/18 03:41:54;;;;;;;1.90;1.80;;;10.40;99.90;;;;;;5040837;28;20192;-88
2022/09/18 03:44:19;;;;;;;3.83;2.93;;;10.40;99.90;;;;;;5047119;28;20183;-88
2022/09/18 03:46:45;;;;;;;3.23;2.23;;;11.00;99.90;;;;;;5038164;28;20191;-89
2022/09/18 03:49:10;;;;;;;2.47;2.27;;;12.40;99.90;;;;;;5054381;28;20216;-88
2022/09/18 03:51:36;;;;;;;4.30;2.60;;;10.40;99.90;;;;;;5055813;28;20258;-88
2022/09/18 03:54:02;;;;;;;2.70;1.97;;;10.40;99.90;;;;;;5056160;28;20640;-89
2022/09/18 03:56:27;;;;;;;3.92;1.73;;;10.40;99.90;;;;;;5033318;28;20191;-89
2022/09/18 03:58:53;;;;;;;2.17;1.98;;;10.40;99.90;;;;;;5019361;28;20631;-88
2022/09/18 04:01:18;;;;;;;2.13;2.03;;;10.30;99.90;;;;;;5022008;28;20180;-88
2022/09/18 04:03:44;;;;;;;3.30;2.73;;;10.30;99.90;;;;;;5034594;28;20268;-88
2022/09/18 04:06:10;;;;;;;2.43;2.23;;;10.30;99.90;;;;;;5035326;28;20267;-89
2022/09/18 04:08:37;;;;;;;3.80;2.67;;;10.30;99.90;;;;;;5048614;28;20593;-88
2022/09/18 04:11:04;;;;;;;2.53;2.10;;;10.30;99.90;;;;;;5055313;28;20176;-88
2022/09/18 04:13:31;;;;;;;2.23;2.03;;;10.30;99.90;;;;;;5054750;28;20184;-88
2022/09/18 04:15:57;;;;;;;1.87;1.73;;;10.30;99.90;;;;;;5052080;28;20181;-87
2022/09/18 04:18:22;;;;;;;2.47;2.23;;;10.70;99.90;;;;;;5036939;28;20567;-88
2022/09/18 04:20:50;;;;;;;3.00;2.70;;;10.30;99.90;;;;;;5054717;28;20180;-87
2022/09/18 04:23:16;;;;;;;4.33;3.17;;;10.80;99.90;;;;;;5036820;28;20199;-88
2022/09/18 04:25:42;;;;;;;6.30;3.37;;;11.00;99.90;;;;;;5053449;28;20578;-87
2022/09/18 04:28:09;;;;;;;2.93;2.60;;;10.30;99.90;;;;;;5037466;28;20208;-87
2022/09/18 04:30:36;;;;;;;2.93;2.27;;;10.30;99.90;;;;;;5034950;28;20198;-87
2022/09/18 04:33:02;;;;;;;3.10;2.47;;;10.30;99.90;;;;;;5034836;28;20176;-88
2022/09/18 04:35:28;;;;;;;2.83;2.60;;;10.30;99.90;;;;;;5035965;28;20267;-88
2022/09/18 04:37:54;;;;;;;6.37;2.67;;;10.80;99.90;;;;;;5034115;28;20292;-87
2022/09/18 04:40:19;;;;;;;2.17;1.90;;;10.30;99.90;;;;;;5032893;28;20319;-88
2022/09/18 04:42:45;;;;;;;2.13;2.00;;;10.30;99.90;;;;;;5032577;28;20187;-88
2022/09/18 04:45:11;;;;;;;2.63;2.40;;;10.30;99.90;;;;;;5038010;28;20187;-89
2022/09/18 04:47:37;;;;;;;3.77;2.47;;;10.30;99.90;;;;;;5036563;28;20187;-87
2022/09/18 04:50:03;;;;;;;4.03;3.27;;;11.10;99.90;;;;;;5041706;28;20559;-87
2022/09/18 04:52:29;;;;;;;3.03;2.70;;;10.30;99.90;;;;;;5034146;28;20381;-86
2022/09/18 04:54:54;;;;;;;3.37;2.70;;;10.40;99.90;;;;;;5034496;28;20297;-88
2022/09/18 04:57:20;;;;;;;3.47;2.73;;;10.70;99.90;;;;;;5032872;28;20593;-87
2022/09/18 04:59:46;;;;;;;3.43;2.77;;;10.30;99.90;;;;;;5034251;28;20185;-88
2022/09/18 05:02:11;;;;;;;5.10;3.40;;;12.40;99.90;;;;;;5034738;28;20230;-86
2022/09/18 05:04:37;;;;;;;2.83;2.63;;;10.30;99.90;;;;;;5016130;28;20184;-87
2022/09/18 05:07:04;;;;;;;3.20;2.38;;;10.30;99.90;;;;;;5016601;28;20185;-87
2022/09/18 05:09:29;;;;;;;3.03;2.13;;;10.30;99.90;;;;;;5039225;28;20227;-85
2022/09/18 05:11:56;;;;;;;2.67;2.47;;;10.70;99.90;;;;;;5036992;28;20187;-86
2022/09/18 05:14:21;;;;;;;1.92;1.83;;;10.30;99.90;;;;;;5026239;28;20188;-86
2022/09/18 05:16:47;;;;;;;1.55;1.27;;;10.30;99.90;;;;;;5054518;28;20262;-87
2022/09/18 05:19:12;;;;;;;1.33;1.23;;;10.20;99.90;;;;;;5039336;28;20229;-86
2022/09/18 05:21:38;;;;;;;2.40;2.20;;;10.20;99.90;;;;;;5042382;28;20184;-86
2022/09/18 05:24:04;;;;;;;2.23;1.83;;;10.40;99.90;;;;;;5015862;28;20208;-88
2022/09/18 05:26:30;;;;;;;1.97;1.77;;;;;;;;;;5039955;28;20185;-86
2022/09/18 05:28:55;;;;;;;2.23;1.97;;;10.20;99.90;;;;;;5032658;28;20280;-85
2022/09/18 05:31:21;;;;;;;1.60;1.30;;;11.30;99.90;;;;;;5044811;28;20640;-85
2022/09/18 05:33:46;;;;;;;2.00;1.37;;;10.20;99.90;;;;;;5025598;28;20188;-85
2022/09/18 05:36:12;;;;;;;1.47;1.37;;;10.20;99.90;;;;;;5033484;28;20184;-85
2022/09/18 05:38:38;;;;;;;1.60;1.50;;;10.20;99.90;;;;;;5043605;28;20212;-85
2022/09/18 05:41:03;;;;;;;2.07;1.97;;;10.90;99.90;;;;;;5039067;28;20679;-86
2022/09/18 05:43:29;;;;;;;1.47;1.37;;;10.20;99.90;;;;;;5032681;28;20266;-86
2022/09/18 05:45:55;;;;;;;2.60;2.05;;;10.20;99.90;;;;;;5040194;28;20183;-85
2022/09/18 05:48:21;;;;;;;1.00;1.00;;;10.70;99.90;;;;;;5040751;28;20212;-86
2022/09/18 05:50:47;;;;;;;1.73;1.63;;;10.20;99.90;;;;;;5040922;28;20576;-87
2022/09/18 05:53:15;;;;;;;1.73;1.47;;;10.20;99.90;;;;;;5040959;28;20184;-84
2022/09/18 05:55:41;;;;;;;1.20;1.10;;;10.80;99.90;;;;;;5047584;28;20188;-86
2022/09/18 05:58:11;;;;;;;1.15;1.05;;;10.20;99.90;;;;;;5046418;28;20664;-85
2022/09/18 06:00:37;;;;;;;1.03;1.03;;;10.40;99.90;;;;;;5043442;28;20270;-85
2022/09/18 06:03:11;;;;;;;1.23;1.13;;;10.10;99.90;;;;;;5044328;28;20263;-84
2022/09/18 06:05:40;;;;;;;3.60;1.80;;;10.20;99.90;;;;;;5045844;28;20190;-86
2022/09/18 06:08:11;;;;;;;1.57;1.47;;;10.20;99.90;;;;;;5042943;28;20286;-86
2022/09/18 06:10:39;;;;;;;1.20;1.20;;;10.40;99.90;;;;;;5046419;28;20193;-86
2022/09/18 06:13:06;;;;;;;1.10;1.10;;;10.20;99.90;;;;;;5046233;28;20175;-85
2022/09/18 06:15:32;;;;;;;5.57;1.83;;;10.20;99.90;;;;;;5047204;28;20180;-84
2022/09/18 06:17:58;;;;;;;1.60;1.50;;;10.20;99.90;;;;;;5035026;28;20686;-84
2022/09/18 06:20:24;;;;;;;2.13;1.67;;;11.20;99.90;;;;;;5039525;28;20188;-84
2022/09/18 06:22:49;;;;;;;1.50;1.40;;;10.20;99.90;;;;;;5046964;28;20262;-84
2022/09/18 06:25:18;;;;;;;1.80;1.70;;;9.90;99.90;;;;;;5052631;28;20172;-84
2022/09/18 06:27:44;;;;;;;2.85;2.03;;;10.10;99.90;;;;;;5046360;28;20184;-85
2022/09/18 06:30:10;;;;;;;2.70;1.58;;;10.10;99.90;;;;;;5039159;28;20199;-84
2022/09/18 06:32:35;;;;;;;2.47;2.23;;;10.10;99.90;;;;;;5040001;28;20190;-85
2022/09/18 06:35:01;;;;;;;2.37;1.97;;;10.50;99.90;;;;;;5056382;28;20176;-85
2022/09/18 06:37:27;;;;;;;4.83;2.90;;;10.30;99.90;;;;;;5068755;28;20175;-89
2022/09/18 06:39:52;;;;;;;2.50;1.53;;;10.10;99.90;;;;;;5076295;28;20180;-85
2022/09/18 06:42:18;;;;;;;3.30;2.00;;;10.10;99.90;;;;;;5076152;28;20191;-85
2022/09/18 06:44:44;;;;;;;1.80;1.70;;;;;;;;;;5074366;28;20626;-85
2022/09/18 06:47:09;;;;;;;1.70;1.53;;;10.20;99.90;;;;;;5052436;28;20199;-85
2022/09/18 06:49:35;;;;;;;2.40;2.20;;;10.20;99.90;;;;;;5053923;28;20219;-88
2022/09/18 06:52:01;;;;;;;2.53;1.73;;;10.20;99.90;;;;;;5058471;28;20176;-90
2022/09/18 06:54:27;;;;;;;2.33;2.17;;;10.20;99.90;;;;;;5060674;28;20194;-88
2022/09/18 06:56:52;;;;;;;4.85;2.60;;;11.50;99.90;;;;;;5073577;28;20208;-88
2022/09/18 06:59:18;;;;;;;2.60;2.40;;;10.20;99.90;;;;;;5056244;28;20670;-84
2022/09/18 07:01:47;;;;;;;3.57;2.07;;;10.30;99.90;;;;;;5030709;28;20269;-87
2022/09/18 07:04:12;;;;;;;5.40;2.83;;;10.20;99.90;;;;;;5046848;28;20528;-85
2022/09/18 07:06:38;;;;;;;7.53;2.97;;;10.20;99.90;;;;;;5051175;28;20195;-85
2022/09/18 07:09:03;;;;;;;3.07;2.57;;;10.20;99.90;;;;;;5034561;28;20254;-85
2022/09/18 07:11:30;;;;;;;3.10;2.80;;;10.30;99.90;;;;;;5035210;28;20200;-85
2022/09/18 07:13:55;;;;;;;3.50;3.03;;;10.40;99.90;;;;;;5048276;28;20196;-84
2022/09/18 07:16:21;;;;;;;3.43;2.80;;;10.30;99.90;;;;;;5033979;28;20199;-85
2022/09/18 07:18:47;;;;;;;2.58;2.38;;;10.30;99.90;;;;;;5052056;28;20192;-85
2022/09/18 07:21:13;;;;;;;4.18;3.15;;;10.30;99.90;;;;;;5050173;28;20195;-82
2022/09/18 07:23:39;;;;;;;3.57;3.13;;;10.30;99.90;;;;;;5036032;28;20717;-84
2022/09/18 07:26:05;;;;;;;6.85;2.15;;;10.40;99.90;;;;;;5051828;28;20228;-84
2022/09/18 07:28:30;;;;;;;4.93;2.67;;;10.40;99.90;;;;;;5053387;28;20302;-86
2022/09/18 07:31:02;;;;;;;6.68;3.45;;;10.40;99.90;;;;;;5046040;28;20605;-85
2022/09/18 07:33:28;;;;;;;2.17;2.03;;;10.40;99.90;;;;;;5044466;28;20180;-84
2022/09/18 07:35:58;;;;;;;4.50;2.57;;;10.40;99.90;;;;;;5052348;28;20200;-85
2022/09/18 07:38:23;;;;;;;4.13;2.83;;;10.40;99.90;;;;;;5044549;28;20649;-84
2022/09/18 07:40:49;;;;;;;3.03;2.57;;;10.50;99.90;;;;;;5047340;28;20202;-85
2022/09/18 07:43:15;;;;;;;4.40;2.30;;;;;;;;;;5037609;28;20547;-86
2022/09/18 07:45:43;;;;;;;3.53;2.40;;;10.60;99.90;;;;;;5042383;28;20219;-86
2022/09/18 07:48:08;;;;;;;2.47;2.27;;;10.50;99.90;;;;;;5043131;28;20212;-87
2022/09/18 07:50:34;;;;;;;2.83;1.87;;;10.20;99.90;;;;;;5052650;28;20277;-86
2022/09/18 07:53:02;;;;;;;2.67;2.17;;;11.00;99.90;;;;;;5047966;28;20191;-85
2022/09/18 07:55:28;;;;;;;2.87;2.33;;;10.60;99.90;;;;;;5041380;28;20712;-85
2022/09/18 07:57:59;;;;;;;4.37;3.17;;;11.30;99.90;;;;;;5043823;28;20271;-85
2022/09/18 08:00:26;;;;;;;4.67;2.73;;;10.60;99.90;;;;;;5047393;28;20215;-85
2022/09/18 08:03:02;;;;;;;2.60;2.40;;;10.60;99.90;;;;;;5042322;28;20180;-86
2022/09/18 08:05:29;;;;;;;2.00;1.90;;;10.60;99.90;;;;;;5011191;28;20191;-86
2022/09/18 08:07:54;;;;;;;5.13;1.90;;;10.60;99.90;;;;;;5031217;28;20224;-84
2022/09/18 08:10:20;;;;;;;2.50;2.30;;;10.70;99.90;;;;;;5026335;28;20208;-86
2022/09/18 08:12:46;;;;;;;2.20;2.10;;;10.70;99.90;;;;;;4987984;28;20585;-86
2022/09/18 08:15:12;;;;;;;3.17;1.52;;;11.10;99.90;;;;;;5019795;28;20193;-85
2022/09/18 08:17:44;;;;;;;2.65;1.75;;;10.70;99.90;;;;;;5014209;28;20196;-86
2022/09/18 08:20:10;;;;;;;1.50;1.40;;;10.90;99.90;;;;;;5007935;28;20688;-85
2022/09/18 08:22:41;;;;;;;2.03;1.92;;;10.70;99.90;;;;;;5005357;28;20185;-87
2022/09/18 08:25:07;;;;;;;3.28;2.53;;;10.70;99.90;;;;;;4996572;28;20197;-86
2022/09/18 08:27:37;;;;;;;1.50;1.40;;;10.70;99.90;;;;;;5025529;28;20296;-85
2022/09/18 08:30:03;;;;;;;3.30;1.77;;;10.70;99.90;;;;;;4997775;28;20355;-86
2022/09/18 08:32:29;;;;;;;1.60;1.13;;;10.70;99.90;;;;;;5002248;28;20201;-87
2022/09/18 08:34:54;;;;;;;1.67;1.57;;;10.80;99.90;;;;;;5005472;28;20803;-84
2022/09/18 08:37:20;;;;;;;1.75;1.65;;;10.70;99.90;;;;;;5018000;28;20200;-85
2022/09/18 08:43:26;;;;;;;1.50;1.40;;;10.70;99.90;;;;;;5517359;22;20254;-88
2022/09/18 08:46:13;;;;;;;0.95;0.88;;;10.70;99.90;;;;;;5025154;28;20199;-86
2022/09/18 08:48:54;;;;;;;1.52;1.42;;;10.70;99.90;;;;;;5028775;28;20301;-87
2022/09/18 08:51:35;;;;;;;1.63;1.52;;;10.70;99.90;;;;;;5028345;28;20295;-89
2022/09/18 08:54:32;;;;;;;1.50;1.33;;;10.70;99.90;;;;;;5023944;28;20227;-88
2022/09/18 08:57:05;;;;;;;2.03;1.83;;;10.40;99.90;;;;;;5031031;28;20181;-90
2022/09/18 08:59:57;;;;;;;1.38;1.27;;;10.70;99.90;;;;;;5033943;28;20302;-89
2022/09/18 09:02:30;;;;;;;0.80;0.80;;;10.80;99.90;;;;;;5045716;28;20215;-91
2022/09/18 09:05:02;;;;;;;2.55;1.55;;;10.60;99.90;;;;;;5029647;28;20192;-89
2022/09/18 09:07:59;;;;;;;0.77;0.77;;;10.60;99.90;;;;;;5045928;28;20183;-90
2022/09/18 09:10:30;;;;;;;0.73;0.73;;;10.90;99.90;;;;;;5025392;28;20199;-96
2022/09/18 09:13:14;;;;;;;0.83;0.67;;;10.70;99.90;;;;;;5049938;28;20180;-91
2022/09/18 09:16:12;;;;;;;0.70;0.70;;;10.60;99.90;;;;;;5045171;28;20219;-91
2022/09/18 09:19:02;;;;;;;1.87;1.33;;;10.70;99.90;;;;;;5052975;28;20189;-92
2022/09/18 09:21:49;;;;;;;0.80;0.80;;;10.70;99.90;;;;;;5032636;28;20252;-91
2022/09/18 09:24:35;;;;;;;0.77;0.70;;;10.50;99.90;;;;;;5033928;28;20184;-91
2022/09/18 09:27:23;;;;;;;1.90;1.07;;;10.40;99.90;;;;;;5037599;28;20329;-90
2022/09/18 09:29:58;;;;;;;0.83;0.83;;;10.40;99.90;;;;;;5024391;28;20243;-90
2022/09/18 09:32:32;;;;;;;0.90;0.63;;;10.30;99.90;;;;;;5045304;28;20233;-91
2022/09/18 09:35:16;;;;;;;1.87;1.10;;;10.20;99.90;;;;;;5044186;28;20211;-89
2022/09/18 09:37:45;;;;;;;1.67;1.57;;;11.10;99.90;;;;;;5041126;28;20186;-89
2022/09/18 09:40:49;;;;;;;0.90;0.90;;;10.30;99.90;;;;;;5045727;28;20192;-91
2022/09/18 09:43:26;;;;;;;0.90;0.83;;;10.30;99.90;;;;;;4998856;28;20238;-90
2022/09/18 09:45:57;;;;;;;1.17;1.13;;;10.20;99.90;;;;;;5017652;28;20267;-90
2022/09/18 09:48:45;;;;;;;1.47;1.30;;;10.20;99.90;;;;;;5016693;28;20208;-88
2022/09/18 09:51:55;;;;;;;0.90;0.90;;;10.10;99.90;;;;;;5011658;28;20196;-92
2022/09/18 09:54:23;;;;;;;0.70;0.70;;;9.60;99.90;;;;;;5018320;28;20197;-94
2022/09/18 09:57:01;;;;;;;1.57;1.47;;;10.00;99.90;;;;;;5015121;28;20271;-93
2022/09/18 09:59:46;;;;;;;2.20;1.20;;;10.00;99.90;;;;;;5015599;28;20185;-92
2022/09/18 10:02:32;;;;;;;1.13;1.07;;;9.70;99.90;;;;;;5027893;28;20263;-91
2022/09/18 10:05:13;;;;;;;1.27;1.20;;;9.60;99.90;;;;;;5011680;28;20189;-94
2022/09/18 10:08:02;;;;;;;0.80;0.80;;;11.10;99.90;;;;;;5027582;28;20262;-93
2022/09/18 10:10:54;;;;;;;1.03;0.97;;;9.90;99.90;;;;;;5024768;28;20235;-92
2022/09/18 10:13:42;;;;;;;1.37;1.27;;;10.20;99.90;;;;;;5033948;28;20196;-92
2022/09/18 10:16:26;;;;;;;1.37;1.27;;;9.60;99.90;;;;;;5023078;28;20566;-95
2022/09/18 10:18:52;;;;;;;0.90;0.77;;;12.30;99.90;;;;;;5032466;28;20637;-96
2022/09/18 10:21:20;;;;;;;1.33;1.10;;;12.10;99.90;;;;;;5017213;28;20196;-91
2022/09/18 10:23:58;;;;;;;1.33;1.27;;;9.60;99.90;;;;;;5019776;28;20664;-92
2022/09/18 10:26:45;;;;;;;3.47;1.20;;;9.60;99.90;;;;;;5037695;28;20183;-92
2022/09/18 10:29:11;;;;;;;1.87;1.53;;;9.80;99.90;;;;;;5016276;28;20890;-91
2022/09/18 10:31:48;;;;;;;1.40;1.30;;;9.70;99.90;;;;;;5033281;28;20756;-92
2022/09/18 10:34:41;;;;;;;1.43;1.33;;;9.70;99.90;;;;;;5007009;28;20550;-91
2022/09/18 10:37:27;;;;;;;0.70;0.70;;;9.80;99.90;;;;;;5018724;28;20584;-90
2022/09/18 10:39:56;;;;;;;1.30;1.20;;;9.80;99.90;;;;;;5008903;28;20216;-88
2022/09/18 10:42:24;;;;;;;1.93;1.23;;;9.90;99.90;;;;;;5003210;28;20710;-88
2022/09/18 10:45:19;;;;;;;1.33;1.13;;;9.70;99.90;;;;;;5050903;28;20216;-89
2022/09/18 10:47:45;;;;;;;0.93;0.93;;;9.90;99.90;;;;;;5037443;28;20187;-87
2022/09/18 10:50:10;;;;;;;0.73;0.73;;;10.00;99.90;;;;;;5034519;28;20189;-91
2022/09/18 10:52:40;;;;;;;1.43;1.33;;;10.10;99.90;;;;;;5027622;28;20517;-91
2022/09/18 10:55:06;;;;;;;1.17;0.90;;;10.10;99.90;;;;;;5057877;28;20180;-92
2022/09/18 10:57:37;;;;;;;1.87;1.67;;;10.20;99.90;;;;;;5040005;28;20191;-93
2022/09/18 11:00:12;;;;;;;1.00;1.00;;;10.20;99.90;;;;;;5044229;28;20211;-93
2022/09/18 11:02:43;;;;;;;0.83;0.80;;;10.20;99.90;;;;;;5041920;28;20183;-95
2022/09/18 11:05:18;;;;;;;1.77;0.90;;;10.50;99.90;;;;;;5040575;28;20190;-89
2022/09/18 11:07:49;;;;;;;1.17;0.90;;;10.30;99.90;;;;;;5058056;28;20187;-89
2022/09/18 11:10:21;;;;;;;1.20;1.10;;;10.30;99.90;;;;;;5041039;28;20191;-90
2022/09/18 11:12:58;;;;;;;0.80;0.80;;;10.40;99.90;;;;;;5058926;28;20656;-92
2022/09/18 11:15:27;;;;;;;4.30;1.03;;;10.40;99.90;;;;;;5040257;28;20557;-92
2022/09/18 11:17:59;;;;;;;0.60;0.60;;;10.50;99.90;;;;;;5037492;28;20222;-92
2022/09/18 11:20:33;;;;;;;0.40;0.40;;;10.40;99.90;;;;;;5057136;28;20179;-92
2022/09/18 11:23:17;;;;;;;1.00;1.00;;;10.50;99.90;;;;;;5051283;28;20318;-93
2022/09/18 11:25:45;;;;;;;1.13;1.03;;;10.60;99.90;;;;;;5031991;28;20180;-93
2022/09/18 11:28:22;;;;;;;0.57;0.57;;;10.50;99.90;;;;;;5020631;28;20191;-92
2022/09/18 11:31:00;;;;;;;1.33;0.50;;;10.60;99.90;;;;;;5034921;28;20256;-90
2022/09/18 11:33:27;;;;;;;0.40;0.40;;;10.60;99.90;;;;;;5049540;28;20187;-91
2022/09/18 11:36:03;;;;;;;0.83;0.83;;;12.10;99.90;;;;;;5053872;28;20267;-89
2022/09/18 11:38:30;;;;;;;1.27;1.27;;;10.60;99.90;;;;;;5037639;28;20210;-92
2022/09/18 11:40:58;;;;;;;0.83;0.83;;;10.60;99.90;;;;;;5011424;28;20196;-93
2022/09/18 11:43:27;;;;;;;1.50;1.02;;;10.70;99.90;;;;;;5055755;28;20336;-89
2022/09/18 11:46:30;;;;;;;1.77;1.27;;;12.40;99.90;;;;;;5035783;28;20195;-91
2022/09/18 11:49:16;;;;;;;0.77;0.77;;;10.80;99.90;;;;;;5063841;28;20184;-90
2022/09/18 11:51:52;;;;;;;0.70;0.70;;;10.80;99.90;;;;;;5068022;28;20183;-92
2022/09/18 11:54:27;;;;;;;0.73;0.73;;;10.90;99.90;;;;;;5052358;28;20187;-91
2022/09/18 11:56:59;;;;;;;0.53;0.53;;;11.00;99.90;;;;;;5061707;28;20286;-90
2022/09/18 11:59:41;;;;;;;0.43;0.43;;;11.10;99.90;;;;;;5067000;28;20238;-91
2022/09/18 12:02:18;;;;;;;0.50;0.50;;;11.10;99.90;;;;;;5065803;28;20651;-93
2022/09/18 12:05:17;;;;;;;0.40;0.40;;;11.20;99.90;;;;;;5060557;28;20184;-91
2022/09/18 12:07:45;;;;;;;0.90;0.73;;;11.30;99.90;;;;;;5043661;28;20188;-92
2022/09/18 12:10:21;;;;;;;0.90;0.63;;;11.40;99.90;;;;;;5071568;28;20199;-92
2022/09/18 12:13:15;;;;;;;0.68;0.68;;;11.50;99.90;;;;;;5061301;28;20233;-91
2022/09/18 12:15:47;;;;;;;0.88;0.88;;;11.50;99.90;;;;;;5017233;28;20188;-91
2022/09/18 12:18:24;;;;;;;0.80;0.80;;;11.60;99.90;;;;;;5062132;28;20219;-92
2022/09/18 12:21:16;;;;;;;0.60;0.60;;;11.70;99.90;;;;;;5068704;28;20168;-90
2022/09/18 12:23:42;;;;;;;0.70;0.70;;;11.80;99.90;;;;;;5069955;28;20202;-90
2022/09/18 12:26:44;;;;;;;0.75;0.75;;;11.80;99.90;;;;;;5046705;28;20199;-92
2022/09/18 12:29:36;;;;;;;2.30;1.40;;;11.90;99.90;;;;;;5054382;28;20503;-91
2022/09/18 12:32:36;;;;;;;0.47;0.47;;;11.90;99.90;;;;;;5065158;28;20191;-90
2022/09/18 12:35:23;;;;;;;0.77;0.70;;;11.90;99.90;;;;;;5067165;28;20196;-91
2022/09/18 12:37:59;;;;;;;0.75;0.75;;;11.90;99.90;;;;;;5072010;28;20172;-90
2022/09/18 12:41:10;;;;;;;4.70;1.80;;;11.90;99.90;;;;;;5052427;28;20188;-89
2022/09/18 12:44:01;;;;;;;0.77;0.77;;;11.90;99.90;;;;;;5048459;28;20235;-90
2022/09/18 12:46:33;;;;;;;1.05;0.95;;;11.90;99.90;;;;;;5067623;28;20189;-89
2022/09/18 12:49:23;;;;;;;1.02;1.02;;;11.80;99.90;;;;;;5063670;28;20196;-89
2022/09/18 12:52:10;;;;;;;1.33;1.23;;;11.80;99.90;;;;;;5044103;28;20192;-91
2022/09/18 12:55:00;;;;;;;1.45;1.10;;;11.80;99.90;;;;;;5037734;28;20214;-90
2022/09/18 12:57:52;;;;;;;3.28;1.33;;;11.90;99.90;;;;;;5035921;28;20192;-90
2022/09/18 13:00:18;;;;;;;1.10;1.00;;;11.80;99.90;;;;;;5019984;28;20247;-91
2022/09/18 13:03:03;;;;;;;1.52;1.10;;;11.70;99.90;;;;;;5042083;28;20176;-92
2022/09/18 13:05:34;;;;;;;1.65;1.35;;;11.70;99.90;;;;;;5038046;28;20181;-91
2022/09/18 13:08:26;;;;;;;1.10;1.00;;;11.70;99.90;;;;;;5035498;28;20525;-90
2022/09/18 13:11:03;;;;;;;2.03;1.42;;;11.70;99.90;;;;;;5020798;28;20690;-90
2022/09/18 13:13:52;;;;;;;2.20;2.00;;;11.70;99.90;;;;;;5022927;28;20176;-90
2022/09/18 13:16:42;;;;;;;0.70;0.70;;;11.70;99.90;;;;;;5028519;28;20204;-90
2022/09/18 13:19:27;;;;;;;0.73;0.73;;;11.70;99.90;;;;;;5030268;28;20692;-89
2022/09/18 13:21:57;;;;;;;1.15;0.98;;;11.70;99.90;;;;;;5029561;28;20192;-89